sensor_id;sensor_type;location;lat;lon;timestamp;temperature;humidity
78704;SHT31;68034;51.966;5.676;2023-04-24T00:01:24;12.6;72.8
78704;SHT31;68034;51.966;5.676;2023-04-24T00:03:56;12.6;72.1
78704;SHT31;68034;51.966;5.676;2023-04-24T00:06:26;12.6;72.1
78704;SHT31;68034;51.966;5.676;2023-04-24T00:08:59;12.6;72.2
78704;SHT31;68034;51.966;5.676;2023-04-24T00:11:30;12.6;72.2
78704;SHT31;68034;51.966;5.676;2023-04-24T00:13:58;12.6;72.6
78704;SHT31;68034;51.966;5.676;2023-04-24T00:16:28;12.6;72.6
78704;SHT31;68034;51.966;5.676;2023-04-24T00:18:57;12.6;72.4
78704;SHT31;68034;51.966;5.676;2023-04-24T00:21:27;12.5;72.2
78704;SHT31;68034;51.966;5.676;2023-04-24T00:23:56;12.5;72.7
78704;SHT31;68034;51.966;5.676;2023-04-24T00:26:25;12.4;72.9
78704;SHT31;68034;51.966;5.676;2023-04-24T00:28:54;12.4;73.0
78704;SHT31;68034;51.966;5.676;2023-04-24T00:31:23;12.4;73.4
78704;SHT31;68034;51.966;5.676;2023-04-24T00:33:52;12.3;73.4
78704;SHT31;68034;51.966;5.676;2023-04-24T00:36:21;12.3;73.0
78704;SHT31;68034;51.966;5.676;2023-04-24T00:38:53;12.3;73.2
78704;SHT31;68034;51.966;5.676;2023-04-24T00:41:23;12.2;73.6
78704;SHT31;68034;51.966;5.676;2023-04-24T00:43:53;12.2;74.0
78704;SHT31;68034;51.966;5.676;2023-04-24T00:46:22;12.2;74.5
78704;SHT31;68034;51.966;5.676;2023-04-24T00:48:55;12.1;74.7
78704;SHT31;68034;51.966;5.676;2023-04-24T00:51:25;12.1;75.2
78704;SHT31;68034;51.966;5.676;2023-04-24T00:53:53;12.1;75.4
78704;SHT31;68034;51.966;5.676;2023-04-24T00:56:23;12.1;75.7
78704;SHT31;68034;51.966;5.676;2023-04-24T00:58:52;12.1;76.0
78704;SHT31;68034;51.966;5.676;2023-04-24T01:01:22;12.1;76.0
78704;SHT31;68034;51.966;5.676;2023-04-24T01:03:52;12.1;75.6
78704;SHT31;68034;51.966;5.676;2023-04-24T01:06:24;12.1;76.4
78704;SHT31;68034;51.966;5.676;2023-04-24T01:08:58;12.1;76.7
78704;SHT31;68034;51.966;5.676;2023-04-24T01:11:30;12.1;75.7
78704;SHT31;68034;51.966;5.676;2023-04-24T01:14:00;12.1;75.6
78704;SHT31;68034;51.966;5.676;2023-04-24T01:16:30;12.1;75.8
78704;SHT31;68034;51.966;5.676;2023-04-24T01:19:00;12.0;76.2
78704;SHT31;68034;51.966;5.676;2023-04-24T01:21:32;12.0;76.9
78704;SHT31;68034;51.966;5.676;2023-04-24T01:24:04;11.9;76.7
78704;SHT31;68034;51.966;5.676;2023-04-24T01:26:33;11.9;77.1
78704;SHT31;68034;51.966;5.676;2023-04-24T01:29:04;11.9;77.2
78704;SHT31;68034;51.966;5.676;2023-04-24T01:31:34;11.8;77.6
78704;SHT31;68034;51.966;5.676;2023-04-24T01:34:04;11.8;77.6
78704;SHT31;68034;51.966;5.676;2023-04-24T01:36:35;11.8;77.8
78704;SHT31;68034;51.966;5.676;2023-04-24T01:39:05;11.8;78.0
78704;SHT31;68034;51.966;5.676;2023-04-24T01:41:35;11.8;78.4
78704;SHT31;68034;51.966;5.676;2023-04-24T01:44:10;11.8;78.8
78704;SHT31;68034;51.966;5.676;2023-04-24T01:46:41;11.9;78.0
78704;SHT31;68034;51.966;5.676;2023-04-24T01:49:10;11.9;77.6
78704;SHT31;68034;51.966;5.676;2023-04-24T01:51:42;11.9;77.4
78704;SHT31;68034;51.966;5.676;2023-04-24T01:54:11;11.9;77.4
78704;SHT31;68034;51.966;5.676;2023-04-24T01:56:43;12.0;77.6
78704;SHT31;68034;51.966;5.676;2023-04-24T01:59:12;11.9;77.8
78704;SHT31;68034;51.966;5.676;2023-04-24T02:01:41;11.9;78.1
78704;SHT31;68034;51.966;5.676;2023-04-24T02:04:10;11.9;78.3
78704;SHT31;68034;51.966;5.676;2023-04-24T02:06:40;11.9;78.2
78704;SHT31;68034;51.966;5.676;2023-04-24T02:09:09;11.9;78.4
78704;SHT31;68034;51.966;5.676;2023-04-24T02:11:39;11.9;78.8
78704;SHT31;68034;51.966;5.676;2023-04-24T02:14:08;11.9;79.0
78704;SHT31;68034;51.966;5.676;2023-04-24T02:16:37;11.8;79.3
78704;SHT31;68034;51.966;5.676;2023-04-24T02:19:06;11.8;79.3
78704;SHT31;68034;51.966;5.676;2023-04-24T02:21:36;11.8;79.3
78704;SHT31;68034;51.966;5.676;2023-04-24T02:24:07;11.8;79.6
78704;SHT31;68034;51.966;5.676;2023-04-24T02:26:36;11.8;79.4
78704;SHT31;68034;51.966;5.676;2023-04-24T02:29:08;11.8;79.7
78704;SHT31;68034;51.966;5.676;2023-04-24T02:31:37;11.8;79.8
78704;SHT31;68034;51.966;5.676;2023-04-24T02:34:06;11.8;80.1
78704;SHT31;68034;51.966;5.676;2023-04-24T02:36:37;11.8;79.2
78704;SHT31;68034;51.966;5.676;2023-04-24T02:39:06;11.7;79.2
78704;SHT31;68034;51.966;5.676;2023-04-24T02:41:36;11.7;79.5
78704;SHT31;68034;51.966;5.676;2023-04-24T02:44:05;11.7;79.7
78704;SHT31;68034;51.966;5.676;2023-04-24T02:46:36;11.7;80.2
78704;SHT31;68034;51.966;5.676;2023-04-24T02:49:05;11.8;79.7
78704;SHT31;68034;51.966;5.676;2023-04-24T02:51:34;11.9;79.0
78704;SHT31;68034;51.966;5.676;2023-04-24T02:54:07;11.9;78.4
78704;SHT31;68034;51.966;5.676;2023-04-24T02:56:38;11.9;77.7
78704;SHT31;68034;51.966;5.676;2023-04-24T02:59:08;11.8;77.6
78704;SHT31;68034;51.966;5.676;2023-04-24T03:01:37;11.8;77.8
78704;SHT31;68034;51.966;5.676;2023-04-24T03:04:09;11.8;78.3
78704;SHT31;68034;51.966;5.676;2023-04-24T03:06:39;11.7;78.6
78704;SHT31;68034;51.966;5.676;2023-04-24T03:09:09;11.7;78.7
78704;SHT31;68034;51.966;5.676;2023-04-24T03:11:38;11.7;78.9
78704;SHT31;68034;51.966;5.676;2023-04-24T03:14:07;11.7;79.2
78704;SHT31;68034;51.966;5.676;2023-04-24T03:16:36;11.7;79.7
78704;SHT31;68034;51.966;5.676;2023-04-24T03:19:07;11.6;79.9
78704;SHT31;68034;51.966;5.676;2023-04-24T03:21:36;11.6;79.9
78704;SHT31;68034;51.966;5.676;2023-04-24T03:24:08;11.6;80.0
78704;SHT31;68034;51.966;5.676;2023-04-24T03:26:38;11.6;79.9
78704;SHT31;68034;51.966;5.676;2023-04-24T03:29:07;11.6;79.9
78704;SHT31;68034;51.966;5.676;2023-04-24T03:31:36;11.6;79.7
78704;SHT31;68034;51.966;5.676;2023-04-24T03:34:07;11.5;79.4
78704;SHT31;68034;51.966;5.676;2023-04-24T03:36:36;11.5;79.4
78704;SHT31;68034;51.966;5.676;2023-04-24T03:39:08;11.5;79.6
78704;SHT31;68034;51.966;5.676;2023-04-24T03:41:37;11.5;79.5
78704;SHT31;68034;51.966;5.676;2023-04-24T03:44:06;11.5;79.3
78704;SHT31;68034;51.966;5.676;2023-04-24T03:46:36;11.5;79.3
78704;SHT31;68034;51.966;5.676;2023-04-24T03:49:05;11.5;79.3
78704;SHT31;68034;51.966;5.676;2023-04-24T03:51:34;11.5;79.4
78704;SHT31;68034;51.966;5.676;2023-04-24T03:54:04;11.5;79.5
78704;SHT31;68034;51.966;5.676;2023-04-24T03:56:35;11.4;79.0
78704;SHT31;68034;51.966;5.676;2023-04-24T03:59:04;11.4;78.8
78704;SHT31;68034;51.966;5.676;2023-04-24T04:01:36;11.4;78.7
78704;SHT31;68034;51.966;5.676;2023-04-24T04:04:08;11.4;78.6
78704;SHT31;68034;51.966;5.676;2023-04-24T04:06:37;11.4;78.8
78704;SHT31;68034;51.966;5.676;2023-04-24T04:09:10;11.4;78.8
78704;SHT31;68034;51.966;5.676;2023-04-24T04:11:43;11.4;78.7
78704;SHT31;68034;51.966;5.676;2023-04-24T04:14:12;11.3;78.7
78704;SHT31;68034;51.966;5.676;2023-04-24T04:16:41;11.3;78.2
78704;SHT31;68034;51.966;5.676;2023-04-24T04:19:11;11.4;78.6
78704;SHT31;68034;51.966;5.676;2023-04-24T04:21:39;11.4;78.0
78704;SHT31;68034;51.966;5.676;2023-04-24T04:24:08;11.4;77.6
78704;SHT31;68034;51.966;5.676;2023-04-24T04:26:38;11.4;77.4
78704;SHT31;68034;51.966;5.676;2023-04-24T04:29:07;11.4;77.6
78704;SHT31;68034;51.966;5.676;2023-04-24T04:31:38;11.3;77.8
78704;SHT31;68034;51.966;5.676;2023-04-24T04:34:07;11.3;77.9
78704;SHT31;68034;51.966;5.676;2023-04-24T04:36:36;11.3;78.0
78704;SHT31;68034;51.966;5.676;2023-04-24T04:39:08;11.3;78.1
78704;SHT31;68034;51.966;5.676;2023-04-24T04:41:37;11.2;78.0
78704;SHT31;68034;51.966;5.676;2023-04-24T04:44:07;11.2;77.9
78704;SHT31;68034;51.966;5.676;2023-04-24T04:46:36;11.1;78.2
78704;SHT31;68034;51.966;5.676;2023-04-24T04:49:06;11.1;78.9
78704;SHT31;68034;51.966;5.676;2023-04-24T04:51:35;11.1;79.2
78704;SHT31;68034;51.966;5.676;2023-04-24T04:54:06;11.0;79.4
78704;SHT31;68034;51.966;5.676;2023-04-24T04:56:35;11.0;79.6
78704;SHT31;68034;51.966;5.676;2023-04-24T04:59:04;11.0;79.9
78704;SHT31;68034;51.966;5.676;2023-04-24T05:01:33;11.0;80.1
78704;SHT31;68034;51.966;5.676;2023-04-24T05:04:03;11.0;80.4
78704;SHT31;68034;51.966;5.676;2023-04-24T05:06:32;11.0;80.5
78704;SHT31;68034;51.966;5.676;2023-04-24T05:09:02;11.0;80.4
78704;SHT31;68034;51.966;5.676;2023-04-24T05:11:32;11.0;80.9
78704;SHT31;68034;51.966;5.676;2023-04-24T05:14:01;11.0;80.8
78704;SHT31;68034;51.966;5.676;2023-04-24T05:16:30;11.0;80.6
78704;SHT31;68034;51.966;5.676;2023-04-24T05:19:00;11.1;80.7
78704;SHT31;68034;51.966;5.676;2023-04-24T05:21:29;11.1;80.5
78704;SHT31;68034;51.966;5.676;2023-04-24T05:23:58;11.1;80.4
78704;SHT31;68034;51.966;5.676;2023-04-24T05:26:27;11.2;80.4
78704;SHT31;68034;51.966;5.676;2023-04-24T05:28:56;11.2;80.3
78704;SHT31;68034;51.966;5.676;2023-04-24T05:31:25;11.2;80.2
78704;SHT31;68034;51.966;5.676;2023-04-24T05:33:56;11.3;80.4
78704;SHT31;68034;51.966;5.676;2023-04-24T05:36:25;11.4;79.6
78704;SHT31;68034;51.966;5.676;2023-04-24T05:38:54;11.5;79.3
78704;SHT31;68034;51.966;5.676;2023-04-24T05:41:23;11.5;79.3
78704;SHT31;68034;51.966;5.676;2023-04-24T05:43:52;11.5;79.4
78704;SHT31;68034;51.966;5.676;2023-04-24T05:46:21;11.5;79.4
78704;SHT31;68034;51.966;5.676;2023-04-24T05:48:50;11.5;79.6
78704;SHT31;68034;51.966;5.676;2023-04-24T05:51:19;11.6;79.4
78704;SHT31;68034;51.966;5.676;2023-04-24T05:53:48;11.6;79.2
78704;SHT31;68034;51.966;5.676;2023-04-24T05:56:18;11.6;79.3
78704;SHT31;68034;51.966;5.676;2023-04-24T05:58:47;11.6;79.2
78704;SHT31;68034;51.966;5.676;2023-04-24T06:01:25;11.6;79.2
78704;SHT31;68034;51.966;5.676;2023-04-24T06:03:54;11.6;79.5
78704;SHT31;68034;51.966;5.676;2023-04-24T06:06:23;11.6;79.5
78704;SHT31;68034;51.966;5.676;2023-04-24T06:08:53;11.6;79.5
78704;SHT31;68034;51.966;5.676;2023-04-24T06:11:22;11.6;79.7
78704;SHT31;68034;51.966;5.676;2023-04-24T06:13:51;11.6;79.8
78704;SHT31;68034;51.966;5.676;2023-04-24T06:16:20;11.6;79.8
78704;SHT31;68034;51.966;5.676;2023-04-24T06:18:49;11.7;79.9
78704;SHT31;68034;51.966;5.676;2023-04-24T06:21:18;11.7;80.1
78704;SHT31;68034;51.966;5.676;2023-04-24T06:23:46;11.7;79.8
78704;SHT31;68034;51.966;5.676;2023-04-24T06:26:16;11.7;79.7
78704;SHT31;68034;51.966;5.676;2023-04-24T06:28:44;11.7;79.5
78704;SHT31;68034;51.966;5.676;2023-04-24T06:31:13;11.7;79.5
78704;SHT31;68034;51.966;5.676;2023-04-24T06:33:42;11.8;79.2
78704;SHT31;68034;51.966;5.676;2023-04-24T06:36:11;11.8;79.2
78704;SHT31;68034;51.966;5.676;2023-04-24T06:38:40;11.8;79.5
78704;SHT31;68034;51.966;5.676;2023-04-24T06:41:09;11.7;79.3
78704;SHT31;68034;51.966;5.676;2023-04-24T06:43:41;11.7;79.3
78704;SHT31;68034;51.966;5.676;2023-04-24T06:46:10;11.7;79.1
78704;SHT31;68034;51.966;5.676;2023-04-24T06:48:39;11.7;78.8
78704;SHT31;68034;51.966;5.676;2023-04-24T06:51:08;11.7;79.0
78704;SHT31;68034;51.966;5.676;2023-04-24T06:53:37;11.7;79.2
78704;SHT31;68034;51.966;5.676;2023-04-24T06:56:11;11.7;79.7
78704;SHT31;68034;51.966;5.676;2023-04-24T06:58:40;11.7;78.8
78704;SHT31;68034;51.966;5.676;2023-04-24T07:01:09;11.7;78.6
78704;SHT31;68034;51.966;5.676;2023-04-24T07:03:38;11.7;78.2
78704;SHT31;68034;51.966;5.676;2023-04-24T07:06:07;11.7;78.1
78704;SHT31;68034;51.966;5.676;2023-04-24T07:08:36;11.6;78.1
78704;SHT31;68034;51.966;5.676;2023-04-24T07:11:05;11.6;78.3
78704;SHT31;68034;51.966;5.676;2023-04-24T07:13:36;11.5;78.7
78704;SHT31;68034;51.966;5.676;2023-04-24T07:16:08;11.5;78.6
78704;SHT31;68034;51.966;5.676;2023-04-24T07:18:37;11.4;79.0
78704;SHT31;68034;51.966;5.676;2023-04-24T07:21:08;11.4;79.1
78704;SHT31;68034;51.966;5.676;2023-04-24T07:23:37;11.4;79.4
78704;SHT31;68034;51.966;5.676;2023-04-24T07:26:08;11.3;79.7
78704;SHT31;68034;51.966;5.676;2023-04-24T07:28:36;11.3;79.8
78704;SHT31;68034;51.966;5.676;2023-04-24T07:31:05;11.3;79.8
78704;SHT31;68034;51.966;5.676;2023-04-24T07:33:34;11.2;80.2
78704;SHT31;68034;51.966;5.676;2023-04-24T07:36:03;11.2;80.4
78704;SHT31;68034;51.966;5.676;2023-04-24T07:38:32;11.2;80.2
78704;SHT31;68034;51.966;5.676;2023-04-24T07:41:01;11.2;80.1
78704;SHT31;68034;51.966;5.676;2023-04-24T07:43:32;11.1;80.4
78704;SHT31;68034;51.966;5.676;2023-04-24T07:46:01;11.2;80.3
78704;SHT31;68034;51.966;5.676;2023-04-24T07:48:29;11.2;80.1
78704;SHT31;68034;51.966;5.676;2023-04-24T07:50:58;11.3;80.1
78704;SHT31;68034;51.966;5.676;2023-04-24T07:53:27;11.4;79.6
78704;SHT31;68034;51.966;5.676;2023-04-24T07:55:57;11.5;79.2
78704;SHT31;68034;51.966;5.676;2023-04-24T07:58:31;11.6;78.9
78704;SHT31;68034;51.966;5.676;2023-04-24T08:01:00;11.7;78.2
78704;SHT31;68034;51.966;5.676;2023-04-24T08:03:31;11.8;77.3
78704;SHT31;68034;51.966;5.676;2023-04-24T08:06:01;11.9;77.3
78704;SHT31;68034;51.966;5.676;2023-04-24T08:08:33;11.9;76.9
78704;SHT31;68034;51.966;5.676;2023-04-24T08:11:01;12.0;76.3
78704;SHT31;68034;51.966;5.676;2023-04-24T08:13:33;12.1;75.8
78704;SHT31;68034;51.966;5.676;2023-04-24T08:16:02;12.2;74.9
78704;SHT31;68034;51.966;5.676;2023-04-24T08:18:31;12.2;74.9
78704;SHT31;68034;51.966;5.676;2023-04-24T08:21:01;12.1;74.9
78704;SHT31;68034;51.966;5.676;2023-04-24T08:23:30;12.1;74.8
78704;SHT31;68034;51.966;5.676;2023-04-24T08:25:58;12.0;74.7
78704;SHT31;68034;51.966;5.676;2023-04-24T08:28:27;12.0;75.2
78704;SHT31;68034;51.966;5.676;2023-04-24T08:30:56;11.9;75.7
78704;SHT31;68034;51.966;5.676;2023-04-24T08:33:24;11.8;76.2
78704;SHT31;68034;51.966;5.676;2023-04-24T08:36:00;11.7;76.6
78704;SHT31;68034;51.966;5.676;2023-04-24T08:38:30;11.6;76.4
78704;SHT31;68034;51.966;5.676;2023-04-24T08:41:00;11.6;76.6
78704;SHT31;68034;51.966;5.676;2023-04-24T08:43:33;11.5;76.6
78704;SHT31;68034;51.966;5.676;2023-04-24T08:46:04;11.4;77.2
78704;SHT31;68034;51.966;5.676;2023-04-24T08:48:33;11.4;77.7
78704;SHT31;68034;51.966;5.676;2023-04-24T08:51:02;11.3;78.0
78704;SHT31;68034;51.966;5.676;2023-04-24T08:53:35;11.3;78.3
78704;SHT31;68034;51.966;5.676;2023-04-24T08:56:04;11.3;78.0
78704;SHT31;68034;51.966;5.676;2023-04-24T08:58:33;11.2;78.6
78704;SHT31;68034;51.966;5.676;2023-04-24T09:01:06;11.2;78.8
78704;SHT31;68034;51.966;5.676;2023-04-24T09:03:36;11.1;79.1
78704;SHT31;68034;51.966;5.676;2023-04-24T09:06:06;11.1;79.5
78704;SHT31;68034;51.966;5.676;2023-04-24T09:08:39;11.1;79.4
78704;SHT31;68034;51.966;5.676;2023-04-24T09:11:10;11.1;78.6
78704;SHT31;68034;51.966;5.676;2023-04-24T09:13:41;11.1;79.1
78704;SHT31;68034;51.966;5.676;2023-04-24T09:16:10;11.1;79.5
78704;SHT31;68034;51.966;5.676;2023-04-24T09:18:40;11.1;79.7
78704;SHT31;68034;51.966;5.676;2023-04-24T09:21:10;11.1;79.3
78704;SHT31;68034;51.966;5.676;2023-04-24T09:23:38;11.1;80.3
78704;SHT31;68034;51.966;5.676;2023-04-24T09:26:09;11.1;79.3
78704;SHT31;68034;51.966;5.676;2023-04-24T09:28:40;11.1;78.7
78704;SHT31;68034;51.966;5.676;2023-04-24T09:31:14;11.1;78.5
78704;SHT31;68034;51.966;5.676;2023-04-24T09:33:53;11.1;78.1
78704;SHT31;68034;51.966;5.676;2023-04-24T09:36:30;11.1;78.6
78704;SHT31;68034;51.966;5.676;2023-04-24T09:39:01;11.1;78.9
78704;SHT31;68034;51.966;5.676;2023-04-24T09:41:32;11.2;79.1
78704;SHT31;68034;51.966;5.676;2023-04-24T09:44:12;11.2;78.7
78704;SHT31;68034;51.966;5.676;2023-04-24T09:46:43;11.2;78.0
78704;SHT31;68034;51.966;5.676;2023-04-24T09:49:14;11.2;77.9
78704;SHT31;68034;51.966;5.676;2023-04-24T09:51:43;11.2;76.8
78704;SHT31;68034;51.966;5.676;2023-04-24T09:54:17;11.2;76.6
78704;SHT31;68034;51.966;5.676;2023-04-24T09:56:49;11.2;77.1
78704;SHT31;68034;51.966;5.676;2023-04-24T09:59:19;11.2;77.6
78704;SHT31;68034;51.966;5.676;2023-04-24T10:01:48;11.3;76.4
78704;SHT31;68034;51.966;5.676;2023-04-24T10:04:20;11.3;76.6
78704;SHT31;68034;51.966;5.676;2023-04-24T10:06:52;11.3;77.4
78704;SHT31;68034;51.966;5.676;2023-04-24T10:09:24;11.4;77.9
78704;SHT31;68034;51.966;5.676;2023-04-24T10:11:54;11.5;76.0
78704;SHT31;68034;51.966;5.676;2023-04-24T10:14:24;11.5;75.8
78704;SHT31;68034;51.966;5.676;2023-04-24T10:16:55;11.6;76.4
78704;SHT31;68034;51.966;5.676;2023-04-24T10:19:26;11.7;75.8
78704;SHT31;68034;51.966;5.676;2023-04-24T10:21:56;11.8;74.0
78704;SHT31;68034;51.966;5.676;2023-04-24T10:24:26;11.8;71.7
78704;SHT31;68034;51.966;5.676;2023-04-24T10:26:55;11.9;69.2
78704;SHT31;68034;51.966;5.676;2023-04-24T10:29:24;11.9;69.0
78704;SHT31;68034;51.966;5.676;2023-04-24T10:31:54;11.9;68.8
78704;SHT31;68034;51.966;5.676;2023-04-24T10:34:25;11.9;68.6
78704;SHT31;68034;51.966;5.676;2023-04-24T10:36:56;11.9;67.9
78704;SHT31;68034;51.966;5.676;2023-04-24T10:39:25;12.0;68.2
78704;SHT31;68034;51.966;5.676;2023-04-24T10:41:55;12.0;67.9
78704;SHT31;68034;51.966;5.676;2023-04-24T10:44:25;12.1;65.9
78704;SHT31;68034;51.966;5.676;2023-04-24T10:46:55;12.1;68.1
78704;SHT31;68034;51.966;5.676;2023-04-24T10:49:30;12.1;66.7
78704;SHT31;68034;51.966;5.676;2023-04-24T10:52:03;12.1;67.7
78704;SHT31;68034;51.966;5.676;2023-04-24T10:54:35;12.1;67.2
78704;SHT31;68034;51.966;5.676;2023-04-24T10:57:29;12.1;66.2
78704;SHT31;68034;51.966;5.676;2023-04-24T11:00:19;12.1;67.3
78704;SHT31;68034;51.966;5.676;2023-04-24T11:02:48;12.0;66.4
78704;SHT31;68034;51.966;5.676;2023-04-24T11:05:20;12.0;66.3
78704;SHT31;68034;51.966;5.676;2023-04-24T11:08:14;12.0;65.9
78704;SHT31;68034;51.966;5.676;2023-04-24T11:10:47;12.1;67.0
78704;SHT31;68034;51.966;5.676;2023-04-24T11:13:21;12.1;67.3
78704;SHT31;68034;51.966;5.676;2023-04-24T11:16:12;12.2;67.0
78704;SHT31;68034;51.966;5.676;2023-04-24T11:18:44;12.3;65.8
78704;SHT31;68034;51.966;5.676;2023-04-24T11:21:20;12.3;65.0
78704;SHT31;68034;51.966;5.676;2023-04-24T11:23:52;12.3;65.0
78704;SHT31;68034;51.966;5.676;2023-04-24T11:26:23;12.3;65.8
78704;SHT31;68034;51.966;5.676;2023-04-24T11:29:07;12.3;66.2
78704;SHT31;68034;51.966;5.676;2023-04-24T11:31:39;12.3;67.1
78704;SHT31;68034;51.966;5.676;2023-04-24T11:34:13;12.4;67.4
78704;SHT31;68034;51.966;5.676;2023-04-24T11:36:45;12.5;70.2
78704;SHT31;68034;51.966;5.676;2023-04-24T11:39:14;12.6;66.0
78704;SHT31;68034;51.966;5.676;2023-04-24T11:41:45;12.7;65.0
78704;SHT31;68034;51.966;5.676;2023-04-24T11:44:15;12.8;64.4
78704;SHT31;68034;51.966;5.676;2023-04-24T11:46:48;12.8;62.8
78704;SHT31;68034;51.966;5.676;2023-04-24T11:49:16;12.8;63.5
78704;SHT31;68034;51.966;5.676;2023-04-24T11:51:46;12.8;63.7
78704;SHT31;68034;51.966;5.676;2023-04-24T11:54:14;12.8;63.5
78704;SHT31;68034;51.966;5.676;2023-04-24T11:56:46;12.7;62.1
78704;SHT31;68034;51.966;5.676;2023-04-24T11:59:15;12.7;62.6
78704;SHT31;68034;51.966;5.676;2023-04-24T12:01:45;12.6;64.3
78704;SHT31;68034;51.966;5.676;2023-04-24T12:04:16;12.6;65.9
78704;SHT31;68034;51.966;5.676;2023-04-24T12:07:00;12.5;67.4
78704;SHT31;68034;51.966;5.676;2023-04-24T12:09:43;12.4;68.9
78704;SHT31;68034;51.966;5.676;2023-04-24T12:12:17;12.4;69.2
78704;SHT31;68034;51.966;5.676;2023-04-24T12:14:52;12.3;69.5
78704;SHT31;68034;51.966;5.676;2023-04-24T12:17:26;12.3;68.5
78704;SHT31;68034;51.966;5.676;2023-04-24T12:19:57;12.3;68.9
78704;SHT31;68034;51.966;5.676;2023-04-24T12:22:27;12.3;68.7
78704;SHT31;68034;51.966;5.676;2023-04-24T12:25:01;12.4;67.2
78704;SHT31;68034;51.966;5.676;2023-04-24T12:27:32;12.4;66.0
78704;SHT31;68034;51.966;5.676;2023-04-24T12:30:05;12.4;65.9
78704;SHT31;68034;51.966;5.676;2023-04-24T12:32:34;12.4;64.6
78704;SHT31;68034;51.966;5.676;2023-04-24T12:35:06;12.4;64.3
78704;SHT31;68034;51.966;5.676;2023-04-24T12:37:35;12.4;65.1
78704;SHT31;68034;51.966;5.676;2023-04-24T12:40:07;12.4;64.1
78704;SHT31;68034;51.966;5.676;2023-04-24T12:42:44;12.4;63.5
78704;SHT31;68034;51.966;5.676;2023-04-24T12:45:14;12.4;65.2
78704;SHT31;68034;51.966;5.676;2023-04-24T12:47:45;12.4;64.6
78704;SHT31;68034;51.966;5.676;2023-04-24T12:50:15;12.4;63.9
78704;SHT31;68034;51.966;5.676;2023-04-24T12:52:44;12.5;64.8
78704;SHT31;68034;51.966;5.676;2023-04-24T12:55:15;12.5;64.0
78704;SHT31;68034;51.966;5.676;2023-04-24T12:57:46;12.5;62.8
78704;SHT31;68034;51.966;5.676;2023-04-24T13:00:15;12.5;62.5
78704;SHT31;68034;51.966;5.676;2023-04-24T13:02:44;12.5;62.2
78704;SHT31;68034;51.966;5.676;2023-04-24T13:05:13;12.5;61.8
78704;SHT31;68034;51.966;5.676;2023-04-24T13:07:42;12.5;63.9
78704;SHT31;68034;51.966;5.676;2023-04-24T13:10:11;12.5;63.0
78704;SHT31;68034;51.966;5.676;2023-04-24T13:12:39;12.6;61.1
78704;SHT31;68034;51.966;5.676;2023-04-24T13:15:12;12.6;61.6
78704;SHT31;68034;51.966;5.676;2023-04-24T13:17:41;12.6;60.5
78704;SHT31;68034;51.966;5.676;2023-04-24T13:20:10;12.6;60.9
78704;SHT31;68034;51.966;5.676;2023-04-24T13:22:40;12.6;61.1
78704;SHT31;68034;51.966;5.676;2023-04-24T13:25:09;12.6;60.2
78704;SHT31;68034;51.966;5.676;2023-04-24T13:27:41;12.6;61.1
78704;SHT31;68034;51.966;5.676;2023-04-24T13:30:18;12.7;60.3
78704;SHT31;68034;51.966;5.676;2023-04-24T13:32:46;12.7;60.7
78704;SHT31;68034;51.966;5.676;2023-04-24T13:35:15;12.8;59.3
78704;SHT31;68034;51.966;5.676;2023-04-24T13:37:44;12.8;59.8
78704;SHT31;68034;51.966;5.676;2023-04-24T13:40:13;12.9;60.1
78704;SHT31;68034;51.966;5.676;2023-04-24T13:42:41;13.0;60.5
78704;SHT31;68034;51.966;5.676;2023-04-24T13:45:11;13.1;60.4
78704;SHT31;68034;51.966;5.676;2023-04-24T13:47:40;13.3;57.7
78704;SHT31;68034;51.966;5.676;2023-04-24T13:50:10;13.5;56.7
78704;SHT31;68034;51.966;5.676;2023-04-24T13:52:38;13.7;55.2
78704;SHT31;68034;51.966;5.676;2023-04-24T13:55:07;13.9;56.6
78704;SHT31;68034;51.966;5.676;2023-04-24T13:57:37;14.1;55.1
78704;SHT31;68034;51.966;5.676;2023-04-24T14:00:06;14.3;53.4
78704;SHT31;68034;51.966;5.676;2023-04-24T14:02:36;14.4;52.5
78704;SHT31;68034;51.966;5.676;2023-04-24T14:05:06;14.4;52.1
78704;SHT31;68034;51.966;5.676;2023-04-24T14:07:36;14.5;53.5
78704;SHT31;68034;51.966;5.676;2023-04-24T14:10:05;14.5;53.5
78704;SHT31;68034;51.966;5.676;2023-04-24T14:12:34;14.5;53.1
78704;SHT31;68034;51.966;5.676;2023-04-24T14:15:03;14.5;53.3
78704;SHT31;68034;51.966;5.676;2023-04-24T14:17:32;14.5;54.3
78704;SHT31;68034;51.966;5.676;2023-04-24T14:20:01;14.6;51.1
78704;SHT31;68034;51.966;5.676;2023-04-24T14:22:30;14.8;51.4
78704;SHT31;68034;51.966;5.676;2023-04-24T14:24:59;14.8;50.9
78704;SHT31;68034;51.966;5.676;2023-04-24T14:27:28;14.9;49.0
78704;SHT31;68034;51.966;5.676;2023-04-24T14:29:58;15.0;49.3
78704;SHT31;68034;51.966;5.676;2023-04-24T14:32:27;15.0;50.1
78704;SHT31;68034;51.966;5.676;2023-04-24T14:34:55;15.0;50.8
78704;SHT31;68034;51.966;5.676;2023-04-24T14:37:24;15.1;48.9
78704;SHT31;68034;51.966;5.676;2023-04-24T14:39:55;15.1;49.0
78704;SHT31;68034;51.966;5.676;2023-04-24T14:42:24;15.1;48.7
78704;SHT31;68034;51.966;5.676;2023-04-24T14:44:55;15.0;48.3
78704;SHT31;68034;51.966;5.676;2023-04-24T14:47:23;15.0;48.2
78704;SHT31;68034;51.966;5.676;2023-04-24T14:49:55;15.0;48.0
78704;SHT31;68034;51.966;5.676;2023-04-24T14:52:24;14.9;48.1
78704;SHT31;68034;51.966;5.676;2023-04-24T14:54:53;14.9;49.3
78704;SHT31;68034;51.966;5.676;2023-04-24T14:57:22;14.9;48.7
78704;SHT31;68034;51.966;5.676;2023-04-24T14:59:51;14.8;49.3
78704;SHT31;68034;51.966;5.676;2023-04-24T15:02:20;14.8;49.7
78704;SHT31;68034;51.966;5.676;2023-04-24T15:04:48;14.8;52.1
78704;SHT31;68034;51.966;5.676;2023-04-24T15:07:17;14.9;51.9
78704;SHT31;68034;51.966;5.676;2023-04-24T15:09:46;15.0;51.7
78704;SHT31;68034;51.966;5.676;2023-04-24T15:12:16;15.0;51.0
78704;SHT31;68034;51.966;5.676;2023-04-24T15:14:44;15.1;49.2
78704;SHT31;68034;51.966;5.676;2023-04-24T15:17:13;15.0;49.8
78704;SHT31;68034;51.966;5.676;2023-04-24T15:19:41;14.9;49.4
78704;SHT31;68034;51.966;5.676;2023-04-24T15:22:10;14.9;49.8
78704;SHT31;68034;51.966;5.676;2023-04-24T15:24:39;14.8;50.8
78704;SHT31;68034;51.966;5.676;2023-04-24T15:27:09;14.7;51.4
78704;SHT31;68034;51.966;5.676;2023-04-24T15:29:38;14.6;49.9
78704;SHT31;68034;51.966;5.676;2023-04-24T15:32:06;14.6;50.9
78704;SHT31;68034;51.966;5.676;2023-04-24T15:34:35;14.5;54.2
78704;SHT31;68034;51.966;5.676;2023-04-24T15:37:04;14.4;53.0
78704;SHT31;68034;51.966;5.676;2023-04-24T15:39:33;14.4;52.9
78704;SHT31;68034;51.966;5.676;2023-04-24T15:42:01;14.4;52.1
78704;SHT31;68034;51.966;5.676;2023-04-24T15:44:30;14.3;50.2
78704;SHT31;68034;51.966;5.676;2023-04-24T15:47:00;14.3;49.6
78704;SHT31;68034;51.966;5.676;2023-04-24T15:49:28;14.3;51.0
78704;SHT31;68034;51.966;5.676;2023-04-24T15:51:59;14.3;52.7
78704;SHT31;68034;51.966;5.676;2023-04-24T15:54:28;14.4;52.3
78704;SHT31;68034;51.966;5.676;2023-04-24T15:56:56;14.5;51.4
78704;SHT31;68034;51.966;5.676;2023-04-24T15:59:27;14.7;51.0
78704;SHT31;68034;51.966;5.676;2023-04-24T16:01:59;14.8;51.7
78704;SHT31;68034;51.966;5.676;2023-04-24T16:04:30;15.0;52.5
78704;SHT31;68034;51.966;5.676;2023-04-24T16:07:01;15.1;53.3
78704;SHT31;68034;51.966;5.676;2023-04-24T16:09:31;15.3;51.0
78704;SHT31;68034;51.966;5.676;2023-04-24T16:12:01;15.4;51.0
78704;SHT31;68034;51.966;5.676;2023-04-24T16:14:31;15.5;51.5
78704;SHT31;68034;51.966;5.676;2023-04-24T16:17:01;15.5;49.0
78704;SHT31;68034;51.966;5.676;2023-04-24T16:19:32;15.5;48.9
78704;SHT31;68034;51.966;5.676;2023-04-24T16:22:03;15.5;47.9